Time;durP1;ratioP1;P1;durP2;ratioP2;P2;SDS_P1;SDS_P2;PMS_P1;PMS_P2;Temp;Humidity;BMP_temperature;BMP_pressure;BME280_temperature;BME280_humidity;BME280_pressure;Samples;Min_cycle;Max_cycle;Signal;HPM_P1;HPM_P2
2023/03/11 05:00:40;;;;;;;1.50;1.50;;;0.80;99.90;;;;;;5788685;23;20233;-70
2023/03/11 05:03:06;;;;;;;8.77;4.70;;;0.80;99.90;;;;;;4930449;29;20570;-70
2023/03/11 05:05:34;;;;;;;4.35;4.05;;;0.80;99.90;;;;;;4933317;29;20232;-70
2023/03/11 05:08:00;;;;;;;5.68;5.03;;;0.80;99.90;;;;;;4927982;29;20216;-70
2023/03/11 05:10:27;;;;;;;2.55;2.45;;;0.80;99.90;;;;;;4919693;29;20253;-70
2023/03/11 05:12:54;;;;;;;9.07;5.53;;;0.80;99.90;;;;;;4911170;29;20219;-69
2023/03/11 05:15:21;;;;;;;13.18;4.50;;;0.80;99.90;;;;;;4904001;29;20668;-69
2023/03/11 05:17:49;;;;;;;1.80;1.65;;;0.80;99.90;;;;;;4904018;29;20211;-70
2023/03/11 05:20:15;;;;;;;2.65;1.88;;;0.80;99.90;;;;;;4907719;29;20213;-69
2023/03/11 05:22:42;;;;;;;2.63;2.40;;;0.80;99.90;;;;;;4907890;29;20207;-70
2023/03/11 05:25:09;;;;;;;3.40;3.08;;;0.80;99.90;;;;;;4908858;29;20619;-69
2023/03/11 05:27:36;;;;;;;3.47;3.30;;;0.80;99.90;;;;;;4905860;29;20298;-69
2023/03/11 05:30:04;;;;;;;2.25;2.22;;;0.80;99.90;;;;;;4909583;29;20226;-69
2023/03/11 05:32:31;;;;;;;2.85;2.75;;;0.70;99.90;;;;;;4907357;29;20253;-70
2023/03/11 05:34:59;;;;;;;3.08;2.88;;;0.70;99.90;;;;;;4903538;29;20211;-69
2023/03/11 05:37:26;;;;;;;2.85;2.78;;;0.60;99.90;;;;;;4905992;29;20202;-69
2023/03/11 05:39:53;;;;;;;4.32;3.90;;;0.60;99.90;;;;;;4906768;29;20214;-69
2023/03/11 05:42:19;;;;;;;3.13;1.63;;;0.60;99.90;;;;;;4910736;29;20257;-69
2023/03/11 05:44:46;;;;;;;4.28;3.97;;;0.60;99.90;;;;;;4910511;29;20199;-69
2023/03/11 05:47:13;;;;;;;2.53;2.53;;;0.60;99.90;;;;;;4910953;29;20219;-70
2023/03/11 05:49:39;;;;;;;6.85;6.45;;;0.60;99.90;;;;;;4907207;29;20215;-70
2023/03/11 05:52:08;;;;;;;3.92;3.38;;;0.60;99.90;;;;;;4912144;29;20705;-70
2023/03/11 05:54:35;;;;;;;3.42;3.33;;;0.60;99.90;;;;;;4904230;29;20237;-69
2023/03/11 05:57:01;;;;;;;6.07;5.78;;;0.60;99.90;;;;;;4903127;29;20211;-70
2023/03/11 05:59:28;;;;;;;4.03;3.72;;;0.60;99.90;;;;;;4908661;29;20206;-69
2023/03/11 06:01:55;;;;;;;3.47;3.17;;;0.50;99.90;;;;;;4903022;29;20734;-70
2023/03/11 06:04:21;;;;;;;3.28;3.17;;;0.50;99.90;;;;;;4909447;29;20210;-69
2023/03/11 06:06:48;;;;;;;3.60;3.30;;;0.50;99.90;;;;;;4904122;29;20210;-69
2023/03/11 06:09:16;;;;;;;4.85;3.50;;;0.50;99.90;;;;;;4910012;29;20219;-69
2023/03/11 06:11:43;;;;;;;5.82;4.22;;;0.40;99.90;;;;;;4910294;29;20602;-70
2023/03/11 06:14:12;;;;;;;2.83;2.63;;;0.40;99.90;;;;;;4911293;29;20228;-70
2023/03/11 06:16:39;;;;;;;4.80;3.47;;;0.30;99.90;;;;;;4911178;29;20238;-70
2023/03/11 06:19:05;;;;;;;12.40;5.65;;;0.30;99.90;;;;;;4911709;29;20210;-70
2023/03/11 06:21:32;;;;;;;3.60;3.33;;;0.30;99.90;;;;;;4909037;29;20231;-71
2023/03/11 06:23:59;;;;;;;2.65;2.42;;;0.40;99.90;;;;;;4907407;29;20267;-70
2023/03/11 06:26:27;;;;;;;0.65;0.63;;;0.50;99.90;;;;;;4907479;29;20222;-70
2023/03/11 06:28:54;;;;;;;2.88;2.22;;;0.50;99.90;;;;;;4907331;29;20631;-69
2023/03/11 06:31:23;;;;;;;3.88;3.75;;;0.50;99.90;;;;;;4911701;29;20242;-69
2023/03/11 06:33:49;;;;;;;1.58;1.48;;;0.60;99.90;;;;;;4908933;29;20219;-69
2023/03/11 06:36:18;;;;;;;0.73;0.70;;;0.60;99.90;;;;;;4906762;29;20211;-70
2023/03/11 06:38:45;;;;;;;2.00;1.92;;;0.60;99.90;;;;;;4909371;29;20215;-69
2023/03/11 06:41:13;;;;;;;3.95;3.75;;;0.60;99.90;;;;;;4910092;29;20230;-69
2023/03/11 06:43:41;;;;;;;5.90;2.70;;;0.60;99.90;;;;;;4905794;29;20206;-69
2023/03/11 06:46:12;;;;;;;4.82;3.85;;;0.70;99.90;;;;;;4911750;29;20644;-70
2023/03/11 06:48:39;;;;;;;5.32;2.70;;;0.70;99.90;;;;;;4897718;29;20218;-70
2023/03/11 06:51:06;;;;;;;2.85;2.65;;;0.70;99.90;;;;;;4903058;29;20277;-69
2023/03/11 06:53:33;;;;;;;2.38;2.28;;;0.80;99.90;;;;;;4906541;29;20214;-69
2023/03/11 06:56:02;;;;;;;3.38;3.13;;;0.90;99.90;;;;;;4905309;29;20217;-70
2023/03/11 06:58:29;;;;;;;2.28;2.28;;;0.90;99.90;;;;;;4912367;29;20203;-69
2023/03/11 07:01:02;;;;;;;7.65;6.57;;;0.90;99.90;;;;;;4903453;29;20238;-70
2023/03/11 07:03:28;;;;;;;3.95;2.70;;;0.90;99.90;;;;;;4912105;29;20214;-70
2023/03/11 07:05:55;;;;;;;2.40;2.20;;;1.00;99.90;;;;;;4911098;29;20237;-70
2023/03/11 07:08:22;;;;;;;3.65;2.90;;;1.00;99.90;;;;;;4904058;29;20207;-71
2023/03/11 07:11:00;;;;;;;6.00;4.32;;;1.00;99.90;;;;;;4909911;29;20234;-71
2023/03/11 07:13:27;;;;;;;2.65;2.55;;;1.00;99.90;;;;;;4902224;29;20207;-69
2023/03/11 07:16:02;;;;;;;5.03;2.45;;;1.00;99.90;;;;;;4911131;29;20214;-70
2023/03/11 07:18:29;;;;;;;14.52;3.78;;;1.00;99.90;;;;;;4907670;29;20351;-70
2023/03/11 07:20:55;;;;;;;6.15;4.38;;;1.00;99.90;;;;;;4901664;29;20249;-70
2023/03/11 07:23:22;;;;;;;6.97;3.95;;;1.10;99.90;;;;;;4905504;29;20555;-70
2023/03/11 07:25:50;;;;;;;5.90;4.60;;;1.20;99.90;;;;;;4908166;29;20234;-70
2023/03/11 07:28:17;;;;;;;7.95;5.40;;;1.20;99.90;;;;;;4909108;29;20215;-70
2023/03/11 07:30:45;;;;;;;4.00;3.70;;;1.20;99.90;;;;;;4907662;29;20261;-70
2023/03/11 07:33:13;;;;;;;4.13;2.50;;;1.20;99.90;;;;;;4899238;29;20222;-70
2023/03/11 07:35:40;;;;;;;4.70;3.80;;;1.30;99.90;;;;;;4904599;29;20215;-70
2023/03/11 07:38:07;;;;;;;4.93;4.53;;;1.30;99.90;;;;;;4906987;29;20230;-70
2023/03/11 07:40:34;;;;;;;4.93;4.60;;;1.40;99.90;;;;;;4906845;29;20334;-70
2023/03/11 07:43:00;;;;;;;2.20;2.20;;;1.40;99.90;;;;;;4911562;29;20198;-70
2023/03/11 07:45:27;;;;;;;2.42;2.42;;;1.40;99.90;;;;;;4905107;29;20211;-70
2023/03/11 07:47:54;;;;;;;4.15;3.85;;;1.50;99.90;;;;;;4906411;29;20203;-70
2023/03/11 07:50:22;;;;;;;3.60;2.70;;;1.50;99.90;;;;;;4913806;29;20218;-70
2023/03/11 07:52:49;;;;;;;2.80;2.00;;;1.50;99.90;;;;;;4910907;29;20210;-70
2023/03/11 07:55:16;;;;;;;5.70;3.05;;;1.50;99.90;;;;;;4904219;29;20794;-70
2023/03/11 07:57:43;;;;;;;3.50;3.40;;;1.50;99.90;;;;;;4914471;29;20675;-70
2023/03/11 08:00:11;;;;;;;1.88;1.70;;;1.60;99.90;;;;;;4913312;29;20296;-70
2023/03/11 08:02:38;;;;;;;2.67;2.47;;;1.60;99.90;;;;;;4902674;29;20230;-70
2023/03/11 08:05:05;;;;;;;1.80;1.80;;;1.70;99.90;;;;;;4911956;29;20210;-71
2023/03/11 08:07:33;;;;;;;9.45;2.65;;;1.70;99.90;;;;;;4914752;29;20210;-71
2023/03/11 08:10:00;;;;;;;5.15;4.18;;;1.70;99.90;;;;;;4914990;29;20207;-71
2023/03/11 08:12:27;;;;;;;5.40;4.60;;;1.70;99.90;;;;;;4909980;29;20234;-71
2023/03/11 08:14:54;;;;;;;8.20;3.97;;;1.80;99.90;;;;;;4900349;29;20597;-72
2023/03/11 08:17:21;;;;;;;1.55;1.55;;;1.80;99.90;;;;;;4909377;29;20210;-71
2023/03/11 08:19:49;;;;;;;1.52;1.42;;;1.90;99.90;;;;;;4913734;29;20680;-71
2023/03/11 08:22:16;;;;;;;2.25;1.33;;;1.80;99.90;;;;;;4914500;29;20608;-71
2023/03/11 08:24:44;;;;;;;3.15;2.97;;;1.90;99.90;;;;;;4911514;29;20218;-71
2023/03/11 08:27:11;;;;;;;1.58;1.48;;;1.90;99.90;;;;;;4910582;29;20222;-71
2023/03/11 08:29:37;;;;;;;2.65;2.55;;;1.90;99.90;;;;;;4906375;29;20203;-71
2023/03/11 08:32:05;;;;;;;4.00;3.70;;;1.90;99.90;;;;;;4909502;29;20230;-71
2023/03/11 08:34:33;;;;;;;1.92;1.92;;;2.00;99.90;;;;;;4905005;29;20617;-71
2023/03/11 08:37:00;;;;;;;2.67;1.90;;;2.00;99.90;;;;;;4908707;29;20234;-70
2023/03/11 08:39:27;;;;;;;2.20;2.15;;;2.00;99.90;;;;;;4908390;29;20210;-71
2023/03/11 08:41:55;;;;;;;1.83;1.73;;;2.00;99.90;;;;;;4904027;29;20589;-70
2023/03/11 08:44:22;;;;;;;5.65;2.15;;;2.10;99.90;;;;;;4910877;29;20254;-70
2023/03/11 08:46:49;;;;;;;2.47;2.38;;;2.10;99.90;;;;;;4901856;29;20217;-70
2023/03/11 08:49:15;;;;;;;1.27;1.27;;;2.10;99.90;;;;;;4908069;29;20206;-70
2023/03/11 08:51:42;;;;;;;2.42;2.28;;;2.10;99.90;;;;;;4907702;29;20236;-70
2023/03/11 08:54:09;;;;;;;2.58;2.53;;;2.10;99.90;;;;;;4911504;29;20594;-70
2023/03/11 08:56:36;;;;;;;1.73;1.73;;;2.20;99.90;;;;;;4914193;29;20218;-70
2023/03/11 08:59:04;;;;;;;2.30;2.20;;;2.20;99.90;;;;;;4913549;29;20211;-71
2023/03/11 09:01:30;;;;;;;1.95;1.40;;;2.30;99.90;;;;;;4906436;29;20241;-70
2023/03/11 09:03:57;;;;;;;1.30;1.20;;;2.30;99.90;;;;;;4913627;29;20207;-70
2023/03/11 09:06:24;;;;;;;0.70;0.70;;;2.30;99.90;;;;;;4912140;29;20237;-70
2023/03/11 09:08:51;;;;;;;1.98;1.75;;;2.40;99.90;;;;;;4907301;29;20211;-70
2023/03/11 09:11:20;;;;;;;4.10;3.72;;;2.40;99.90;;;;;;4909824;29;20222;-70
2023/03/11 09:13:47;;;;;;;2.40;2.30;;;2.50;99.90;;;;;;4906680;29;20625;-70
2023/03/11 09:16:18;;;;;;;1.92;1.85;;;2.50;99.90;;;;;;4902314;29;20692;-70
2023/03/11 09:18:44;;;;;;;2.20;2.10;;;2.50;99.90;;;;;;4906954;29;20203;-70
2023/03/11 09:21:11;;;;;;;3.90;2.55;;;2.60;99.90;;;;;;4906458;29;20237;-70
2023/03/11 09:23:39;;;;;;;3.05;2.72;;;2.60;99.90;;;;;;4909182;29;20213;-70
2023/03/11 09:26:05;;;;;;;2.45;2.25;;;2.60;99.90;;;;;;4911620;29;20219;-70
2023/03/11 09:28:32;;;;;;;3.22;3.03;;;2.60;99.90;;;;;;4906371;29;20551;-70
2023/03/11 09:30:59;;;;;;;3.67;3.22;;;2.60;99.90;;;;;;4910456;29;20230;-70
2023/03/11 09:33:27;;;;;;;2.78;2.03;;;2.70;99.90;;;;;;4906112;29;20277;-70
2023/03/11 09:35:54;;;;;;;3.13;3.03;;;2.70;99.90;;;;;;4902806;29;20262;-69
2023/03/11 09:38:21;;;;;;;1.85;1.65;;;2.70;99.90;;;;;;4903381;29;20214;-69
2023/03/11 09:40:56;;;;;;;6.30;3.55;;;2.70;99.90;;;;;;4909856;29;20309;-69
2023/03/11 09:43:41;;;;;;;7.10;2.10;;;2.80;99.90;;;;;;4901271;29;20699;-71
2023/03/11 09:46:26;;;;;;;0.93;0.93;;;2.80;99.90;;;;;;4906757;29;20210;-70
2023/03/11 09:48:59;;;;;;;4.22;3.80;;;2.90;99.90;;;;;;4902110;29;20825;-69
2023/03/11 09:51:29;;;;;;;2.63;2.08;;;3.00;99.90;;;;;;4904823;29;20719;-70
2023/03/11 09:54:02;;;;;;;2.25;1.63;;;3.00;99.90;;;;;;4915084;29;20263;-70
2023/03/11 09:56:31;;;;;;;1.05;1.05;;;3.10;99.90;;;;;;4913682;29;20206;-70
2023/03/11 09:59:02;;;;;;;0.65;0.65;;;3.00;99.90;;;;;;4913878;29;20237;-70
2023/03/11 10:01:32;;;;;;;0.80;0.73;;;3.00;99.90;;;;;;4905660;29;20235;-70
2023/03/11 10:04:04;;;;;;;2.95;2.72;;;2.90;99.90;;;;;;4896053;29;20214;-70
2023/03/11 10:06:31;;;;;;;2.47;0.95;;;3.00;99.90;;;;;;4896907;29;20294;-70
2023/03/11 10:09:04;;;;;;;0.80;0.80;;;3.00;99.90;;;;;;4915180;29;20210;-70
2023/03/11 10:11:56;;;;;;;1.95;1.88;;;2.90;99.90;;;;;;4909872;29;20249;-70
2023/03/11 10:14:36;;;;;;;1.70;1.60;;;2.90;99.90;;;;;;4898605;29;20573;-70
2023/03/11 10:17:15;;;;;;;1.77;1.27;;;2.90;99.90;;;;;;4901248;29;20553;-70
2023/03/11 10:19:49;;;;;;;1.90;1.85;;;3.00;99.90;;;;;;4911228;29;20211;-70
2023/03/11 10:22:26;;;;;;;0.88;0.88;;;3.10;99.90;;;;;;4913375;29;20236;-70
2023/03/11 10:25:09;;;;;;;1.45;1.35;;;3.20;99.90;;;;;;4896540;29;20218;-70
2023/03/11 10:27:40;;;;;;;4.53;2.25;;;3.30;99.90;;;;;;4907981;29;20620;-70
2023/03/11 10:30:18;;;;;;;1.10;1.10;;;3.30;99.90;;;;;;4915642;29;20210;-70
2023/03/11 10:32:51;;;;;;;0.60;0.45;;;3.30;99.90;;;;;;4916183;29;20234;-70
2023/03/11 10:35:22;;;;;;;2.20;2.00;;;3.40;99.90;;;;;;4915290;29;20233;-70
2023/03/11 10:37:53;;;;;;;0.68;0.68;;;3.40;99.90;;;;;;4913643;29;20202;-70
2023/03/11 10:40:28;;;;;;;1.70;1.60;;;3.40;99.90;;;;;;4914862;29;20266;-69
2023/03/11 10:42:58;;;;;;;1.88;1.77;;;3.40;99.90;;;;;;4915296;29;20216;-70
2023/03/11 10:45:27;;;;;;;1.35;1.25;;;3.40;99.90;;;;;;4915601;29;20219;-70
2023/03/11 10:47:56;;;;;;;4.57;3.30;;;3.50;99.90;;;;;;4908929;29;20207;-70
2023/03/11 10:50:24;;;;;;;0.52;0.52;;;3.60;99.90;;;;;;4912624;29;20210;-70
2023/03/11 10:53:09;;;;;;;3.63;3.33;;;3.60;99.90;;;;;;4913114;29;20223;-70
2023/03/11 10:55:44;;;;;;;2.30;1.50;;;3.70;99.90;;;;;;4904678;29;20211;-71
2023/03/11 10:58:15;;;;;;;1.85;1.73;;;3.60;99.90;;;;;;4912244;29;20214;-69
2023/03/11 11:00:42;;;;;;;2.35;2.35;;;3.60;99.90;;;;;;4896585;29;20250;-70
2023/03/11 11:03:20;;;;;;;4.15;2.72;;;3.60;99.90;;;;;;4895529;29;20227;-70
2023/03/11 11:05:58;;;;;;;4.70;2.35;;;3.60;99.90;;;;;;4896365;29;20214;-70
2023/03/11 11:08:24;;;;;;;3.05;1.38;;;3.70;99.90;;;;;;4913926;29;20214;-70
2023/03/11 11:10:53;;;;;;;1.25;1.25;;;3.70;99.90;;;;;;4902772;29;20289;-70
2023/03/11 11:13:22;;;;;;;1.50;1.50;;;3.70;99.90;;;;;;4896344;29;20242;-69
2023/03/11 11:15:57;;;;;;;2.95;2.85;;;3.70;99.90;;;;;;4897246;29;20325;-69
2023/03/11 11:18:27;;;;;;;2.72;2.63;;;3.70;99.90;;;;;;4921594;29;20562;-69
2023/03/11 11:21:01;;;;;;;1.15;1.08;;;3.70;99.90;;;;;;4918187;29;20229;-70
2023/03/11 11:23:33;;;;;;;2.17;1.85;;;3.80;99.90;;;;;;4946368;23;20389;-68
2023/03/11 11:26:03;;;;;;;16.90;2.40;;;3.80;99.90;;;;;;4923520;29;20218;-68
2023/03/11 11:28:31;;;;;;;0.82;0.82;;;3.80;99.90;;;;;;4933377;29;20213;-70
2023/03/11 11:30:59;;;;;;;1.30;1.30;;;3.90;99.90;;;;;;4922995;29;20249;-68
2023/03/11 11:33:29;;;;;;;1.23;1.23;;;3.90;99.90;;;;;;4930506;29;20235;-70
2023/03/11 11:35:59;;;;;;;2.05;2.03;;;4.00;99.90;;;;;;4921951;29;20206;-69
2023/03/11 11:38:28;;;;;;;7.03;2.22;;;3.90;99.90;;;;;;4934396;29;20201;-69
2023/03/11 11:40:57;;;;;;;0.50;0.50;;;3.90;99.90;;;;;;4936319;29;20218;-68
2023/03/11 11:43:46;;;;;;;1.02;1.02;;;3.90;99.90;;;;;;4930708;29;20230;-70
2023/03/11 11:46:20;;;;;;;1.15;1.15;;;3.90;99.90;;;;;;4928411;29;20209;-69
2023/03/11 11:48:55;;;;;;;0.40;0.40;;;3.90;99.90;;;;;;4910326;29;20210;-69
2023/03/11 11:51:28;;;;;;;0.45;0.45;;;4.00;99.90;;;;;;4911474;29;20273;-69
2023/03/11 11:53:58;;;;;;;0.22;0.22;;;4.10;99.90;;;;;;4919342;29;20241;-68
2023/03/11 11:56:26;;;;;;;1.30;1.20;;;4.10;99.90;;;;;;4927092;29;20214;-70
2023/03/11 11:58:53;;;;;;;0.40;0.40;;;4.20;99.90;;;;;;4917542;29;20210;-71
2023/03/11 12:01:31;;;;;;;0.70;0.70;;;4.20;99.90;;;;;;4917377;29;20743;-69
2023/03/11 12:04:35;;;;;;;0.60;0.60;;;4.10;99.90;;;;;;4914664;29;20221;-69
2023/03/11 12:07:14;;;;;;;1.15;1.05;;;4.10;99.90;;;;;;4916668;29;20214;-70
2023/03/11 12:09:50;;;;;;;0.88;0.88;;;4.20;99.90;;;;;;4917201;29;20211;-70
2023/03/11 12:12:26;;;;;;;11.02;2.03;;;4.30;99.90;;;;;;4924242;29;20899;-69
2023/03/11 12:15:00;;;;;;;0.88;0.88;;;4.30;99.90;;;;;;4920633;29;20210;-70
2023/03/11 12:17:29;;;;;;;2.28;1.80;;;4.20;99.90;;;;;;4933645;29;20840;-71
2023/03/11 12:20:00;;;;;;;1.60;1.50;;;4.20;99.90;;;;;;4930002;29;20239;-70
2023/03/11 12:22:54;;;;;;;1.15;1.05;;;4.20;99.90;;;;;;4924434;29;20234;-70
2023/03/11 12:25:31;;;;;;;0.50;0.50;;;4.20;99.90;;;;;;4914562;29;20219;-71
2023/03/11 12:28:08;;;;;;;0.98;0.95;;;4.30;99.90;;;;;;4918342;29;20633;-71
2023/03/11 12:30:38;;;;;;;0.45;0.45;;;4.30;99.90;;;;;;4922408;29;20237;-70
2023/03/11 12:33:07;;;;;;;6.38;2.15;;;4.30;99.90;;;;;;4924233;29;20237;-70
2023/03/11 12:35:35;;;;;;;2.25;2.15;;;4.30;99.90;;;;;;4914647;29;20211;-70
2023/03/11 12:38:17;;;;;;;7.82;1.10;;;4.30;99.90;;;;;;4923223;29;20202;-71
2023/03/11 12:41:03;;;;;;;1.33;1.23;;;4.30;99.90;;;;;;4926582;29;20221;-70
2023/03/11 12:44:09;;;;;;;1.75;1.63;;;4.40;99.90;;;;;;4918277;29;20722;-70
2023/03/11 12:47:18;;;;;;;1.48;0.30;;;4.30;99.90;;;;;;4913063;29;20202;-71
2023/03/11 12:49:46;;;;;;;1.13;0.52;;;4.40;99.90;;;;;;4900837;29;20563;-70
2023/03/11 12:52:51;;;;;;;1.15;1.15;;;4.50;99.90;;;;;;4923665;29;20238;-71
2023/03/11 12:55:31;;;;;;;1.98;1.40;;;4.50;99.90;;;;;;4915028;29;20234;-70
2023/03/11 12:58:31;;;;;;;3.28;3.05;;;4.60;99.90;;;;;;4913204;29;20211;-70
2023/03/11 13:01:12;;;;;;;0.90;0.90;;;4.70;99.90;;;;;;4911428;29;20241;-70
2023/03/11 13:03:53;;;;;;;1.02;1.02;;;4.70;99.90;;;;;;4914310;29;20244;-71
2023/03/11 13:06:44;;;;;;;0.68;0.68;;;4.70;99.90;;;;;;4914001;29;20206;-71
2023/03/11 13:09:16;;;;;;;1.08;1.08;;;4.80;99.90;;;;;;4915032;29;20207;-71
2023/03/11 13:11:46;;;;;;;1.67;1.58;;;4.70;99.90;;;;;;4923312;29;20225;-72
2023/03/11 13:14:28;;;;;;;0.50;0.50;;;4.70;99.90;;;;;;4913405;29;20238;-72
2023/03/11 13:16:55;;;;;;;0.30;0.30;;;4.60;99.90;;;;;;4909516;29;20241;-71
2023/03/11 13:19:48;;;;;;;0.75;0.75;;;4.60;99.90;;;;;;4915846;29;20278;-71
2023/03/11 13:22:54;;;;;;;0.57;0.57;;;4.60;99.90;;;;;;4913549;29;20297;-70
2023/03/11 13:25:30;;;;;;;1.73;1.73;;;4.60;99.90;;;;;;4898423;29;20214;-70
2023/03/11 13:28:08;;;;;;;1.00;1.00;;;4.70;99.90;;;;;;4920953;29;20602;-71
2023/03/11 13:30:39;;;;;;;0.63;0.63;;;4.60;99.90;;;;;;4924378;29;20231;-70
2023/03/11 13:33:24;;;;;;;1.02;1.02;;;4.50;99.90;;;;;;4926714;29;20286;-70
2023/03/11 13:36:03;;;;;;;3.03;1.27;;;4.50;99.90;;;;;;4927632;29;20233;-70
2023/03/11 13:39:00;;;;;;;0.65;0.65;;;4.50;99.90;;;;;;4926261;29;20210;-70
2023/03/11 13:41:31;;;;;;;1.05;1.05;;;4.50;99.90;;;;;;4901914;29;20213;-70
2023/03/11 13:44:13;;;;;;;1.58;0.63;;;4.70;99.90;;;;;;4906269;29;20237;-70
2023/03/11 13:46:43;;;;;;;0.55;0.55;;;4.90;99.90;;;;;;4905252;29;20220;-73
2023/03/11 13:49:24;;;;;;;0.45;0.45;;;4.90;99.90;;;;;;4906085;29;20732;-69
2023/03/11 13:51:53;;;;;;;0.30;0.30;;;5.00;99.90;;;;;;4904919;29;20686;-68
2023/03/11 13:54:34;;;;;;;0.73;0.73;;;4.90;99.90;;;;;;4913774;29;20237;-77
2023/03/11 13:57:02;;;;;;;0.35;0.35;;;4.80;99.90;;;;;;4910772;29;20206;-69
2023/03/11 13:59:31;;;;;;;0.30;0.30;;;4.70;99.90;;;;;;4926200;29;20233;-70
2023/03/11 14:02:01;;;;;;;0.55;0.55;;;4.60;99.90;;;;;;4915212;29;20748;-71
2023/03/11 14:04:30;;;;;;;15.52;3.00;;;4.60;99.90;;;;;;4915102;29;20286;-69
2023/03/11 14:06:57;;;;;;;0.20;0.20;;;4.60;99.90;;;;;;4914632;29;20218;-69
2023/03/11 14:09:26;;;;;;;0.20;0.20;;;4.60;99.90;;;;;;4915838;29;20772;-70
2023/03/11 14:11:55;;;;;;;0.20;0.20;;;4.60;99.90;;;;;;4918694;29;20214;-70
2023/03/11 14:14:34;;;;;;;1.63;1.63;;;4.60;99.90;;;;;;4916621;29;20579;-71
2023/03/11 14:17:03;;;;;;;0.95;0.70;;;4.60;99.90;;;;;;4928533;29;20214;-70
2023/03/11 14:19:30;;;;;;;0.35;0.35;;;4.60;99.90;;;;;;4918163;29;20214;-69
2023/03/11 14:21:56;;;;;;;1.33;1.15;;;4.70;99.90;;;;;;4918320;29;20655;-71
2023/03/11 14:24:26;;;;;;;1.85;1.85;;;4.80;99.90;;;;;;4924265;29;20215;-70
2023/03/11 14:26:55;;;;;;;1.58;0.80;;;4.80;99.90;;;;;;4919557;29;20215;-70
2023/03/11 14:29:27;;;;;;;0.88;0.47;;;4.90;99.90;;;;;;4930462;29;20273;-70
2023/03/11 14:31:56;;;;;;;0.93;0.60;;;4.90;99.90;;;;;;4916697;29;20214;-71
2023/03/11 14:34:26;;;;;;;0.10;0.10;;;5.00;99.90;;;;;;4922067;29;20325;-71
2023/03/11 14:36:55;;;;;;;0.20;0.20;;;5.00;99.90;;;;;;4917333;29;20238;-71
2023/03/11 14:39:33;;;;;;;4.32;0.68;;;5.00;99.90;;;;;;4923801;29;20601;-70
2023/03/11 14:42:09;;;;;;;2.30;1.63;;;5.00;99.90;;;;;;4908920;29;20202;-72
2023/03/11 14:44:40;;;;;;;2.38;1.08;;;5.00;99.90;;;;;;4923973;29;20663;-69
2023/03/11 14:47:14;;;;;;;0.77;0.77;;;4.90;99.90;;;;;;4920924;29;20210;-69
2023/03/11 14:49:42;;;;;;;0.45;0.45;;;4.80;99.90;;;;;;4917579;29;20236;-68
2023/03/11 14:52:15;;;;;;;0.93;0.93;;;4.80;99.90;;;;;;4917544;29;20237;-69
2023/03/11 14:54:43;;;;;;;9.57;0.57;;;4.70;99.90;;;;;;4919449;29;20245;-69
2023/03/11 14:57:19;;;;;;;0.85;0.85;;;4.80;99.90;;;;;;4914998;29;20237;-68
2023/03/11 14:59:49;;;;;;;0.30;0.30;;;4.80;99.90;;;;;;4917180;29;20201;-69
2023/03/11 15:02:38;;;;;;;0.28;0.28;;;4.70;99.90;;;;;;4914728;29;20223;-71
2023/03/11 15:05:11;;;;;;;0.30;0.30;;;4.70;99.90;;;;;;4905452;29;20210;-70
2023/03/11 15:07:38;;;;;;;0.50;0.50;;;4.70;99.90;;;;;;4918499;29;20601;-70
2023/03/11 15:10:09;;;;;;;0.20;0.20;;;4.70;99.90;;;;;;4934581;29;20218;-70
2023/03/11 15:12:40;;;;;;;0.52;0.52;;;4.70;99.90;;;;;;4916923;29;20258;-70
2023/03/11 15:15:22;;;;;;;2.42;2.30;;;4.70;99.90;;;;;;4930972;29;20203;-70
2023/03/11 15:17:54;;;;;;;2.50;0.85;;;4.70;99.90;;;;;;4921068;29;20210;-70
2023/03/11 15:20:28;;;;;;;0.40;0.40;;;4.70;99.90;;;;;;4920485;29;20221;-70
2023/03/11 15:22:59;;;;;;;0.30;0.30;;;4.70;99.90;;;;;;4924699;29;20230;-70
2023/03/11 15:25:27;;;;;;;0.63;0.63;;;4.70;99.90;;;;;;4925826;29;20627;-72
2023/03/11 15:27:54;;;;;;;0.38;0.38;;;4.70;99.90;;;;;;4923111;29;20643;-70
2023/03/11 15:30:24;;;;;;;0.30;0.30;;;4.60;99.90;;;;;;4913231;29;20206;-71
2023/03/11 15:32:53;;;;;;;0.50;0.50;;;4.60;99.90;;;;;;4905841;29;20234;-71
2023/03/11 15:35:21;;;;;;;0.20;0.20;;;4.60;99.90;;;;;;4909207;29;20207;-69
2023/03/11 15:37:50;;;;;;;1.10;0.45;;;4.60;99.90;;;;;;4917349;29;20741;-69
2023/03/11 15:40:24;;;;;;;1.40;1.38;;;4.60;99.90;;;;;;4909908;29;20326;-71
2023/03/11 15:43:18;;;;;;;0.30;0.30;;;4.50;99.90;;;;;;4904788;29;20667;-70
2023/03/11 15:45:45;;;;;;;0.75;0.75;;;4.40;99.90;;;;;;4916583;29;20206;-72
2023/03/11 15:48:13;;;;;;;0.20;0.20;;;4.40;99.90;;;;;;4915887;29;20641;-71
2023/03/11 15:50:48;;;;;;;0.20;0.20;;;4.30;99.90;;;;;;4917189;29;20213;-71
2023/03/11 15:53:15;;;;;;;0.50;0.50;;;4.30;99.90;;;;;;4917408;29;20230;-72
2023/03/11 15:55:42;;;;;;;0.40;0.40;;;4.20;99.90;;;;;;4916882;29;20214;-69
2023/03/11 15:58:09;;;;;;;0.73;0.73;;;4.10;99.90;;;;;;4915711;29;20219;-68
2023/03/11 16:00:36;;;;;;;0.40;0.40;;;4.10;99.90;;;;;;4917865;29;20206;-69
2023/03/11 16:03:04;;;;;;;3.22;0.52;;;4.10;99.90;;;;;;4913619;29;20255;-69
2023/03/11 16:05:32;;;;;;;1.00;0.75;;;4.00;99.90;;;;;;4914895;29;21458;-68
2023/03/11 16:07:58;;;;;;;1.95;1.95;;;4.00;99.90;;;;;;4922488;29;20223;-68
2023/03/11 16:10:27;;;;;;;0.40;0.40;;;4.00;99.90;;;;;;4923271;29;20210;-69
2023/03/11 16:12:54;;;;;;;0.20;0.20;;;4.00;99.90;;;;;;4921532;29;20227;-68
2023/03/11 16:15:23;;;;;;;1.45;0.35;;;3.90;99.90;;;;;;4919719;29;20207;-70
2023/03/11 16:17:51;;;;;;;0.85;0.73;;;3.90;99.90;;;;;;4916103;29;20574;-70
2023/03/11 16:20:18;;;;;;;0.70;0.57;;;3.90;99.90;;;;;;4916272;29;20218;-69
2023/03/11 16:22:48;;;;;;;0.20;0.20;;;3.90;99.90;;;;;;4915334;29;20233;-69
2023/03/11 16:25:21;;;;;;;0.40;0.40;;;3.80;99.90;;;;;;4919428;29;20211;-70
2023/03/11 16:27:51;;;;;;;0.10;0.10;;;3.80;99.90;;;;;;4908102;29;20210;-68
2023/03/11 16:30:18;;;;;;;0.88;0.85;;;3.80;99.90;;;;;;4920755;29;20229;-69
2023/03/11 16:32:45;;;;;;;0.90;0.52;;;3.70;99.90;;;;;;4916234;29;20257;-68
2023/03/11 16:35:12;;;;;;;0.80;0.80;;;3.70;99.90;;;;;;4913005;29;20608;-69
2023/03/11 16:37:41;;;;;;;0.20;0.20;;;3.60;99.90;;;;;;4919603;29;20210;-68
2023/03/11 16:40:14;;;;;;;0.55;0.47;;;3.60;99.90;;;;;;4915139;29;20542;-68
2023/03/11 16:42:42;;;;;;;3.70;1.00;;;3.60;99.90;;;;;;4919317;29;20261;-68
2023/03/11 16:45:10;;;;;;;0.17;0.17;;;3.60;99.90;;;;;;4919287;29;20211;-68
2023/03/11 16:47:36;;;;;;;0.20;0.20;;;3.60;99.90;;;;;;4923458;29;20290;-68
2023/03/11 16:50:04;;;;;;;0.30;0.30;;;3.60;99.90;;;;;;4918269;29;20210;-67
2023/03/11 16:52:31;;;;;;;0.63;0.32;;;3.60;99.90;;;;;;4914000;29;20245;-68
2023/03/11 16:54:57;;;;;;;1.88;1.88;;;3.60;99.90;;;;;;4927969;29;20337;-69
2023/03/11 16:57:25;;;;;;;2.25;0.40;;;3.50;99.90;;;;;;4923004;29;20207;-70
2023/03/11 16:59:52;;;;;;;0.85;0.85;;;3.50;99.90;;;;;;4914488;29;20270;-69
2023/03/11 17:02:20;;;;;;;0.40;0.40;;;3.40;99.90;;;;;;4913801;29;20230;-69
2023/03/11 17:04:47;;;;;;;1.90;1.77;;;3.40;99.90;;;;;;4913130;29;20211;-68
2023/03/11 17:07:14;;;;;;;0.30;0.30;;;3.30;99.90;;;;;;4916508;29;20230;-70
2023/03/11 17:09:41;;;;;;;0.30;0.30;;;3.30;99.90;;;;;;4908992;29;20206;-68
2023/03/11 17:12:10;;;;;;;0.10;0.10;;;3.20;99.90;;;;;;4911870;29;20245;-68
2023/03/11 17:14:39;;;;;;;0.20;0.20;;;3.20;99.90;;;;;;4912372;29;20234;-70
2023/03/11 17:17:06;;;;;;;0.30;0.30;;;3.20;99.90;;;;;;4913221;29;20296;-69
2023/03/11 17:19:33;;;;;;;0.50;0.50;;;3.10;99.90;;;;;;4914805;29;20635;-70
2023/03/11 17:22:00;;;;;;;0.95;0.82;;;3.10;99.90;;;;;;4926560;29;20213;-69
2023/03/11 17:24:26;;;;;;;0.45;0.45;;;3.00;99.90;;;;;;4916293;29;20679;-68
2023/03/11 17:26:53;;;;;;;0.40;0.40;;;3.00;99.90;;;;;;4918205;29;20246;-69
2023/03/11 17:29:20;;;;;;;0.68;0.30;;;2.90;99.90;;;;;;4923382;29;20202;-70
2023/03/11 17:31:48;;;;;;;0.40;0.40;;;2.90;99.90;;;;;;4915509;29;20330;-71
2023/03/11 17:34:14;;;;;;;0.55;0.55;;;2.90;99.90;;;;;;4919568;29;20221;-68
2023/03/11 17:36:41;;;;;;;0.35;0.35;;;2.90;99.90;;;;;;4922236;29;20309;-69
2023/03/11 17:39:08;;;;;;;0.40;0.40;;;2.90;99.90;;;;;;4920863;29;20218;-68
2023/03/11 17:41:34;;;;;;;0.20;0.20;;;2.90;99.90;;;;;;4925828;29;20217;-68
2023/03/11 17:44:01;;;;;;;2.58;1.50;;;2.90;99.90;;;;;;4911083;29;20230;-68
2023/03/11 17:46:28;;;;;;;0.95;0.57;;;2.90;99.90;;;;;;4921542;29;20210;-68
2023/03/11 17:48:56;;;;;;;0.40;0.40;;;2.90;99.90;;;;;;4929876;29;20654;-69
2023/03/11 17:51:25;;;;;;;2.47;0.55;;;2.90;99.90;;;;;;4915606;29;20214;-69
2023/03/11 17:53:54;;;;;;;0.20;0.20;;;2.90;99.90;;;;;;4911528;29;22402;-69
2023/03/11 17:56:21;;;;;;;0.75;0.75;;;2.90;99.90;;;;;;4923092;29;20210;-69
2023/03/11 17:58:49;;;;;;;0.73;0.70;;;2.80;99.90;;;;;;4919061;29;20222;-70
2023/03/11 18:01:18;;;;;;;0.30;0.30;;;2.80;99.90;;;;;;4921444;29;20210;-69
2023/03/11 18:03:44;;;;;;;0.30;0.30;;;2.70;99.90;;;;;;4915191;29;20226;-69
2023/03/11 18:06:13;;;;;;;0.20;0.20;;;2.60;99.90;;;;;;4915769;29;20269;-68
2023/03/11 18:08:40;;;;;;;0.38;0.38;;;2.60;99.90;;;;;;4921877;29;20926;-69
2023/03/11 18:11:08;;;;;;;0.32;0.32;;;2.50;99.90;;;;;;4913884;29;20491;-69
2023/03/11 18:13:36;;;;;;;0.20;0.20;;;2.50;99.90;;;;;;4919396;29;20693;-69
2023/03/11 18:16:05;;;;;;;1.48;0.63;;;2.50;99.90;;;;;;4918082;29;20211;-68